Terminal Aerodrome Forecast
Issued by NWS Portland, ME

Home | Current Version | Previous Version | Text Only | Print | Product List | Glossary On
Versions: 1 2 3 4 5 6 7 8 9 10 11 12 13 14 15 16 17 18 19 20 21 22 23
000
FTUS41 KGYX 212328
TAFPWM
TAF
KPWM 212328Z 2200/2224 VRB03KT 1/4SM FG OVC002
     FM221200 25010KT 1/2SM FG OVC002
     FM221500 27012G20KT P6SM BKN250
     FM221800 29016G24KT P6SM SCT250=

USA.gov is the U.S. government's official web portal to all federal, state and local government web resources and services.